Time;durP1;ratioP1;P1;durP2;ratioP2;P2;SDS_P1;SDS_P2;PMS_P1;PMS_P2;Temp;Humidity;BMP_temperature;BMP_pressure;BME280_temperature;BME280_humidity;BME280_pressure;Samples;Min_cycle;Max_cycle;Signal;HPM_P1;HPM_P2
2022/04/14 00:00:34;;;;;;;6.70;5.30;;;14.50;35.50;;;;;;5071277;28;20165;-31
2022/04/14 00:03:00;;;;;;;5.55;4.68;;;14.50;35.50;;;;;;5071411;28;20204;-33
2022/04/14 00:05:26;;;;;;;5.27;4.23;;;14.50;35.50;;;;;;5071170;28;20318;-32
2022/04/14 00:07:51;;;;;;;7.47;5.23;;;14.40;35.60;;;;;;5066290;28;20419;-32
2022/04/14 00:10:17;;;;;;;6.67;4.93;;;14.40;36.00;;;;;;5063064;28;20654;-32
2022/04/14 00:12:43;;;;;;;6.23;5.00;;;14.40;35.90;;;;;;5071145;28;20554;-30
2022/04/14 00:15:11;;;;;;;8.68;4.65;;;14.40;35.80;;;;;;5071591;28;20418;-33
2022/04/14 00:17:36;;;;;;;4.25;3.85;;;14.40;35.40;;;;;;5071413;28;20185;-33
2022/04/14 00:20:06;;;;;;;5.17;4.10;;;14.30;35.40;;;;;;5071313;28;20538;-33
2022/04/14 00:22:32;;;;;;;5.88;3.97;;;14.30;35.80;;;;;;5073785;28;20731;-32
2022/04/14 00:24:58;;;;;;;7.63;4.13;;;14.30;36.10;;;;;;5074783;28;20614;-32
2022/04/14 00:27:23;;;;;;;8.77;5.77;;;14.30;36.70;;;;;;5074949;28;20168;-33
2022/04/14 00:29:49;;;;;;;6.43;3.87;;;14.30;36.20;;;;;;5074671;28;20192;-33
2022/04/14 00:32:16;;;;;;;5.10;4.28;;;14.30;35.80;;;;;;5074362;28;20531;-33
2022/04/14 00:34:42;;;;;;;5.70;5.05;;;14.30;36.40;;;;;;5070001;28;20192;-32
2022/04/14 00:37:10;;;;;;;5.05;3.63;;;14.20;36.20;;;;;;5064175;28;20173;-32
2022/04/14 00:39:36;;;;;;;5.47;3.92;;;14.20;36.50;;;;;;5074446;28;20642;-33
2022/04/14 00:42:09;;;;;;;6.15;4.85;;;14.20;36.30;;;;;;5071697;28;20610;-33
2022/04/14 00:44:35;;;;;;;7.53;4.28;;;14.20;36.50;;;;;;5066433;28;20246;-34
2022/04/14 00:47:00;;;;;;;4.53;3.30;;;14.20;36.60;;;;;;5074828;28;20200;-32
2022/04/14 00:49:26;;;;;;;9.43;4.53;;;14.10;37.40;;;;;;5074339;28;20169;-32
2022/04/14 00:51:52;;;;;;;7.47;4.13;;;14.10;36.60;;;;;;5074076;28;20239;-33
2022/04/14 00:54:17;;;;;;;5.90;4.13;;;14.10;36.70;;;;;;5074232;28;20452;-32
2022/04/14 00:56:43;;;;;;;15.30;4.10;;;14.10;36.80;;;;;;5074312;28;20199;-32
2022/04/14 00:59:09;;;;;;;5.70;4.57;;;14.10;36.90;;;;;;5074414;28;20181;-33
2022/04/14 01:01:34;;;;;;;7.37;4.17;;;14.00;37.30;;;;;;5073941;28;20700;-30
2022/04/14 01:04:02;;;;;;;7.47;4.13;;;14.00;36.70;;;;;;5063949;28;20181;-32
2022/04/14 01:06:28;;;;;;;5.85;3.65;;;14.00;36.60;;;;;;5034185;28;20258;-32
2022/04/14 01:11:40;;;;;;;6.00;4.38;;;13.90;36.80;;;;;;5033938;28;20518;-30
2022/04/14 01:14:06;;;;;;;10.57;4.55;;;13.90;36.60;;;;;;5060785;28;20189;-32
2022/04/14 01:16:32;;;;;;;5.57;4.73;;;13.90;36.60;;;;;;5073963;28;20172;-32
2022/04/14 01:18:58;;;;;;;5.90;4.50;;;13.90;36.40;;;;;;5073827;28;20168;-33
2022/04/14 01:21:30;;;;;;;3.72;3.30;;;13.80;36.60;;;;;;5073291;28;20200;-32
2022/04/14 01:23:55;;;;;;;4.30;3.20;;;13.90;36.30;;;;;;5073709;28;20287;-33
2022/04/14 01:26:21;;;;;;;6.27;4.20;;;13.80;37.20;;;;;;5073647;28;20259;-33
2022/04/14 01:28:47;;;;;;;6.00;4.20;;;13.70;37.40;;;;;;5073641;28;20173;-33
2022/04/14 01:31:12;;;;;;;5.80;3.97;;;13.70;37.50;;;;;;5073359;28;20403;-33
2022/04/14 01:33:38;;;;;;;7.30;3.13;;;13.70;37.00;;;;;;5073624;28;20614;-33
2022/04/14 01:36:05;;;;;;;8.77;5.53;;;13.70;36.80;;;;;;5073717;28;20566;-33
2022/04/14 01:38:31;;;;;;;6.70;4.78;;;13.70;37.00;;;;;;5073646;28;20180;-33
2022/04/14 01:40:56;;;;;;;4.70;3.10;;;13.60;36.70;;;;;;5073261;28;20259;-32
2022/04/14 01:43:22;;;;;;;4.30;3.53;;;13.60;36.70;;;;;;5073332;28;20235;-33
2022/04/14 01:45:50;;;;;;;5.45;3.15;;;13.60;37.30;;;;;;5073312;28;20176;-33
2022/04/14 01:48:17;;;;;;;4.75;3.60;;;13.60;36.90;;;;;;5073085;28;20589;-33
2022/04/14 01:50:43;;;;;;;4.65;4.05;;;13.60;37.10;;;;;;5073181;28;20172;-33
2022/04/14 01:53:09;;;;;;;6.05;4.53;;;13.50;37.30;;;;;;5073351;28;20196;-33
2022/04/14 01:55:34;;;;;;;8.60;4.30;;;13.50;37.20;;;;;;5073314;28;20370;-33
2022/04/14 01:58:00;;;;;;;9.37;4.40;;;13.50;37.50;;;;;;5073276;28;20202;-33
2022/04/14 02:00:25;;;;;;;3.47;3.10;;;13.40;37.60;;;;;;5072802;28;20599;-33
2022/04/14 02:02:51;;;;;;;4.77;3.40;;;13.40;37.40;;;;;;5072742;28;20769;-33
2022/04/14 02:05:17;;;;;;;3.83;3.43;;;13.30;37.60;;;;;;5073176;28;20244;-33
2022/04/14 02:07:43;;;;;;;4.90;3.33;;;13.30;37.30;;;;;;5073012;28;20534;-33
2022/04/14 02:10:08;;;;;;;6.67;4.83;;;13.40;37.40;;;;;;5073046;28;20169;-33
2022/04/14 02:12:34;;;;;;;5.33;3.73;;;13.30;37.30;;;;;;5072477;28;20211;-33
2022/04/14 02:15:00;;;;;;;4.28;3.15;;;13.30;37.80;;;;;;5072690;28;20192;-33
2022/04/14 02:17:26;;;;;;;4.77;2.90;;;13.30;37.40;;;;;;5072579;28;20177;-33
2022/04/14 02:19:52;;;;;;;7.07;3.30;;;13.20;37.90;;;;;;5072596;28;20897;-33
2022/04/14 02:22:18;;;;;;;5.33;3.77;;;13.30;37.40;;;;;;5072510;28;20215;-33
2022/04/14 02:24:44;;;;;;;3.67;2.88;;;13.20;38.00;;;;;;5072547;28;20176;-33
2022/04/14 02:27:10;;;;;;;5.13;4.00;;;13.20;37.80;;;;;;5072618;28;20173;-33
2022/04/14 02:29:35;;;;;;;4.33;3.90;;;13.20;38.10;;;;;;5072469;28;20556;-33
2022/04/14 02:32:01;;;;;;;6.63;3.60;;;13.10;37.60;;;;;;5071997;28;20666;-33
2022/04/14 02:34:27;;;;;;;8.20;4.10;;;13.10;37.30;;;;;;5072565;28;20173;-33
2022/04/14 02:36:54;;;;;;;5.63;4.30;;;13.10;37.70;;;;;;5072630;28;20176;-33
2022/04/14 02:39:20;;;;;;;4.25;3.63;;;13.10;38.00;;;;;;5072432;28;20398;-33
2022/04/14 02:41:45;;;;;;;6.30;4.68;;;13.00;37.60;;;;;;5071862;28;20216;-33
2022/04/14 02:44:11;;;;;;;8.30;5.50;;;13.00;38.10;;;;;;5071932;28;20187;-33
2022/04/14 02:46:37;;;;;;;7.23;5.27;;;12.90;38.10;;;;;;5072114;28;20229;-33
2022/04/14 02:49:03;;;;;;;6.70;4.70;;;12.90;37.90;;;;;;5072237;28;20411;-32
2022/04/14 02:51:28;;;;;;;15.93;6.03;;;12.80;38.20;;;;;;5072364;28;20200;-33
2022/04/14 02:53:54;;;;;;;9.20;4.63;;;12.70;38.40;;;;;;5072104;28;20181;-32
2022/04/14 02:56:20;;;;;;;6.70;4.83;;;12.70;38.20;;;;;;5072076;28;20176;-32
2022/04/14 02:58:46;;;;;;;7.87;5.37;;;12.70;38.20;;;;;;5072090;28;20196;-32
2022/04/14 03:01:12;;;;;;;6.18;4.22;;;12.70;38.40;;;;;;5071568;28;20232;-32
2022/04/14 03:03:37;;;;;;;5.70;4.40;;;12.70;38.50;;;;;;5072266;28;20206;-32
2022/04/14 03:06:03;;;;;;;5.10;3.87;;;12.70;38.10;;;;;;5071914;28;20407;-32
2022/04/14 03:08:29;;;;;;;7.27;5.07;;;12.70;38.10;;;;;;5072049;28;20168;-32
2022/04/14 03:10:55;;;;;;;4.97;4.50;;;12.70;38.00;;;;;;5071995;28;20411;-32
2022/04/14 03:13:21;;;;;;;5.30;4.40;;;12.70;38.40;;;;;;5071872;28;20207;-32
2022/04/14 03:15:49;;;;;;;8.75;5.20;;;12.60;38.20;;;;;;5071819;28;20609;-32
2022/04/14 03:18:15;;;;;;;7.18;5.97;;;12.60;38.20;;;;;;5072108;28;20234;-32
2022/04/14 03:20:41;;;;;;;6.05;5.45;;;12.50;38.50;;;;;;5071879;28;20584;-32
2022/04/14 03:23:07;;;;;;;5.80;5.10;;;12.40;39.20;;;;;;5071868;28;20211;-32
2022/04/14 03:25:32;;;;;;;8.43;6.03;;;12.40;38.90;;;;;;5071919;28;20176;-33
2022/04/14 03:27:58;;;;;;;6.20;4.70;;;12.40;39.00;;;;;;5071729;28;20535;-32
2022/04/14 03:30:24;;;;;;;5.90;4.93;;;12.40;38.90;;;;;;5071476;28;20234;-32
2022/04/14 03:32:49;;;;;;;10.30;4.87;;;12.40;38.70;;;;;;5071907;28;20195;-32
2022/04/14 03:35:15;;;;;;;8.67;4.40;;;12.30;38.90;;;;;;5072015;28;20827;-32
2022/04/14 03:37:42;;;;;;;7.60;4.83;;;12.30;39.00;;;;;;5071917;28;20183;-32
2022/04/14 03:40:08;;;;;;;7.43;6.03;;;12.30;38.80;;;;;;5071768;28;20177;-32
2022/04/14 03:42:35;;;;;;;9.15;6.20;;;12.30;39.00;;;;;;5071232;28;20208;-32
2022/04/14 03:45:02;;;;;;;11.60;5.55;;;12.30;38.40;;;;;;5071771;28;20259;-32
2022/04/14 03:47:27;;;;;;;9.73;5.78;;;12.30;38.70;;;;;;5071634;28;20630;-32
2022/04/14 03:49:53;;;;;;;7.13;4.40;;;12.30;38.40;;;;;;5071811;28;20176;-32
2022/04/14 03:52:19;;;;;;;10.13;5.23;;;12.20;38.60;;;;;;5071234;28;20682;-32
2022/04/14 03:54:45;;;;;;;12.00;5.77;;;12.20;38.60;;;;;;5071765;28;20176;-32
2022/04/14 03:57:11;;;;;;;9.13;5.05;;;12.10;38.80;;;;;;5074160;28;20410;-32
2022/04/14 03:59:37;;;;;;;5.78;4.70;;;12.10;39.30;;;;;;5075195;28;20184;-32
2022/04/14 04:02:04;;;;;;;5.93;5.20;;;12.10;39.00;;;;;;5075081;28;20209;-32
2022/04/14 04:04:31;;;;;;;5.65;3.97;;;12.10;39.20;;;;;;5075240;28;20172;-30
2022/04/14 04:06:58;;;;;;;8.30;4.68;;;12.10;38.60;;;;;;5075066;28;20613;-31
2022/04/14 04:09:23;;;;;;;8.02;4.82;;;12.20;38.80;;;;;;5075224;28;20271;-31
2022/04/14 04:11:50;;;;;;;12.93;6.20;;;12.10;38.90;;;;;;5074646;28;20303;-31
2022/04/14 04:14:16;;;;;;;6.90;5.25;;;12.10;39.00;;;;;;5074921;28;20661;-32
2022/04/14 04:16:43;;;;;;;8.27;4.13;;;12.10;38.80;;;;;;5074692;28;20204;-31
2022/04/14 04:19:09;;;;;;;8.55;5.75;;;12.10;38.50;;;;;;5075106;28;20204;-32
2022/04/14 04:21:34;;;;;;;7.43;5.13;;;12.10;38.70;;;;;;5074520;28;20209;-31
2022/04/14 04:24:00;;;;;;;4.90;3.83;;;12.10;39.10;;;;;;5075205;28;20188;-32
2022/04/14 04:26:25;;;;;;;10.20;5.57;;;12.00;39.10;;;;;;5074788;28;20160;-32
2022/04/14 04:28:51;;;;;;;5.10;4.03;;;12.00;38.80;;;;;;5074594;28;20199;-32
2022/04/14 04:31:17;;;;;;;8.03;5.07;;;12.00;39.00;;;;;;5074657;28;20172;-33
2022/04/14 04:33:42;;;;;;;5.60;4.53;;;12.00;38.70;;;;;;5074541;28;20173;-32
2022/04/14 04:36:08;;;;;;;6.10;4.10;;;12.10;38.70;;;;;;5074606;28;20172;-32
2022/04/14 04:38:34;;;;;;;6.43;4.07;;;12.10;38.50;;;;;;5074932;28;20175;-31
2022/04/14 04:40:59;;;;;;;5.03;3.80;;;12.10;38.50;;;;;;5074498;28;20176;-33
2022/04/14 04:43:26;;;;;;;7.87;4.23;;;12.10;38.60;;;;;;5074396;28;20658;-32
2022/04/14 04:45:52;;;;;;;5.70;4.35;;;12.20;38.50;;;;;;5074685;28;20165;-31
2022/04/14 04:48:17;;;;;;;5.40;3.70;;;12.20;38.40;;;;;;5074410;28;20195;-32
2022/04/14 04:50:43;;;;;;;4.90;3.07;;;12.30;38.60;;;;;;5074358;28;20264;-30
2022/04/14 04:53:09;;;;;;;5.50;3.90;;;12.30;38.30;;;;;;5074227;28;20199;-32
2022/04/14 04:55:34;;;;;;;6.90;3.70;;;12.30;38.30;;;;;;5074382;28;20176;-31
2022/04/14 04:58:00;;;;;;;6.67;4.60;;;12.30;38.40;;;;;;5074097;28;20180;-31
2022/04/14 05:00:26;;;;;;;7.87;3.40;;;12.40;38.30;;;;;;5074127;28;20176;-33
2022/04/14 05:02:52;;;;;;;4.57;3.73;;;12.40;39.00;;;;;;5074059;28;20463;-33
2022/04/14 05:05:21;;;;;;;7.40;4.30;;;12.30;39.60;;;;;;5074157;28;20192;-30
2022/04/14 05:07:46;;;;;;;9.07;4.90;;;12.40;39.10;;;;;;5073571;28;20183;-32
2022/04/14 05:10:12;;;;;;;6.67;5.63;;;12.50;38.90;;;;;;5074215;28;20259;-33
2022/04/14 05:12:37;;;;;;;8.40;4.70;;;12.60;38.60;;;;;;5073537;28;20208;-31
2022/04/14 05:15:04;;;;;;;5.70;3.50;;;12.70;38.60;;;;;;5073788;28;20172;-32
2022/04/14 05:17:30;;;;;;;5.40;4.10;;;12.80;38.40;;;;;;5073826;28;20204;-33
2022/04/14 05:19:55;;;;;;;5.97;3.60;;;12.90;38.30;;;;;;5073707;28;20211;-30
2022/04/14 05:22:21;;;;;;;8.43;5.67;;;13.00;38.20;;;;;;5073370;28;20213;-31
2022/04/14 05:24:46;;;;;;;10.67;5.50;;;13.20;38.20;;;;;;5073809;28;20519;-31
2022/04/14 05:27:12;;;;;;;5.73;5.17;;;13.30;38.50;;;;;;5074251;28;20172;-33
2022/04/14 05:29:38;;;;;;;7.83;4.30;;;13.40;38.40;;;;;;5073514;28;20265;-30
2022/04/14 05:32:04;;;;;;;7.40;4.90;;;13.50;38.30;;;;;;5073534;28;20230;-32
2022/04/14 05:34:30;;;;;;;7.47;4.97;;;13.70;38.10;;;;;;5073494;28;20212;-32
2022/04/14 05:36:55;;;;;;;9.00;6.20;;;13.80;37.90;;;;;;5073544;28;20209;-30
2022/04/14 05:39:21;;;;;;;9.67;5.73;;;14.00;37.90;;;;;;5073359;28;20183;-32
2022/04/14 05:41:46;;;;;;;6.70;5.80;;;14.10;37.80;;;;;;5066538;28;20769;-32
2022/04/14 05:44:12;;;;;;;10.57;5.83;;;14.30;37.80;;;;;;5065226;28;20309;-31
2022/04/14 05:46:38;;;;;;;8.10;5.60;;;14.40;37.50;;;;;;5073289;28;20204;-31
2022/04/14 05:49:04;;;;;;;9.27;5.23;;;14.60;37.40;;;;;;5073312;28;20168;-33
2022/04/14 05:51:29;;;;;;;7.90;5.37;;;14.70;37.20;;;;;;5073129;28;20192;-33
2022/04/14 05:53:55;;;;;;;10.57;5.60;;;14.90;37.20;;;;;;5073128;28;20642;-33
2022/04/14 05:56:21;;;;;;;6.80;4.70;;;15.00;37.10;;;;;;5072986;28;20238;-33
2022/04/14 05:58:47;;;;;;;5.33;4.67;;;15.10;36.80;;;;;;5072921;28;20589;-33
2022/04/14 06:01:13;;;;;;;5.93;5.10;;;15.20;36.90;;;;;;5072803;28;20811;-33
2022/04/14 06:03:40;;;;;;;7.47;4.40;;;15.40;36.80;;;;;;5073172;28;20180;-33
2022/04/14 06:06:05;;;;;;;7.80;5.45;;;15.50;36.60;;;;;;5072861;28;20417;-33
2022/04/14 06:08:31;;;;;;;5.30;3.90;;;15.60;36.40;;;;;;5072796;28;20165;-33
2022/04/14 06:10:57;;;;;;;5.50;4.83;;;15.70;36.30;;;;;;5072587;28;20256;-33
2022/04/14 06:13:23;;;;;;;6.10;4.83;;;15.90;36.10;;;;;;5072511;28;20785;-33
2022/04/14 06:15:49;;;;;;;7.40;5.20;;;16.00;36.00;;;;;;5072696;28;20769;-33
2022/04/14 06:18:15;;;;;;;8.80;4.50;;;16.10;36.10;;;;;;5072480;28;20260;-33
2022/04/14 06:20:40;;;;;;;11.50;5.83;;;16.30;36.00;;;;;;5072034;28;20962;-33
2022/04/14 06:23:07;;;;;;;7.43;5.30;;;16.50;36.00;;;;;;5072362;28;20212;-33
2022/04/14 06:25:32;;;;;;;8.10;6.50;;;16.60;35.70;;;;;;5072453;28;20176;-30
2022/04/14 06:27:58;;;;;;;8.60;4.07;;;16.70;35.60;;;;;;5072851;28;20271;-32
2022/04/14 06:30:24;;;;;;;8.57;7.07;;;16.90;35.40;;;;;;5072413;28;20206;-33
2022/04/14 06:33:03;;;;;;;6.77;5.27;;;17.00;34.70;;;;;;5072200;28;20425;-32
2022/04/14 06:35:30;;;;;;;7.10;4.80;;;17.20;34.50;;;;;;5072385;28;20180;-30
2022/04/14 06:37:56;;;;;;;8.02;4.90;;;17.30;34.50;;;;;;5072229;28;20607;-33
2022/04/14 06:40:22;;;;;;;7.70;5.63;;;17.40;34.30;;;;;;5072422;28;20193;-34
2022/04/14 06:42:48;;;;;;;8.45;5.20;;;17.50;34.30;;;;;;5072051;28;20453;-34
2022/04/14 06:45:15;;;;;;;4.65;4.03;;;17.60;33.60;;;;;;5072271;28;20165;-33
2022/04/14 06:47:40;;;;;;;6.95;5.13;;;17.80;33.10;;;;;;5072158;28;20256;-33
2022/04/14 06:50:07;;;;;;;7.07;5.20;;;17.90;32.90;;;;;;5072353;28;20208;-33
2022/04/14 06:52:33;;;;;;;7.40;3.75;;;18.00;32.50;;;;;;5071818;28;20212;-33
2022/04/14 06:54:59;;;;;;;12.30;4.80;;;18.00;31.30;;;;;;5072326;28;20273;-33
2022/04/14 06:57:25;;;;;;;7.07;4.78;;;17.90;30.90;;;;;;5072233;28;20414;-33
2022/04/14 06:59:51;;;;;;;6.53;4.20;;;18.00;31.80;;;;;;5071993;28;20199;-33
2022/04/14 07:02:16;;;;;;;7.07;5.37;;;18.10;31.00;;;;;;5071535;28;20243;-33
2022/04/14 07:04:42;;;;;;;5.43;4.10;;;18.20;31.30;;;;;;5071964;28;20175;-33
2022/04/14 07:07:08;;;;;;;10.80;4.93;;;18.30;31.70;;;;;;5072091;28;20707;-33
2022/04/14 07:09:34;;;;;;;6.73;5.10;;;18.50;30.90;;;;;;5071961;28;20176;-33
2022/04/14 07:12:01;;;;;;;7.90;5.20;;;18.60;30.80;;;;;;5071373;28;20451;-33
2022/04/14 07:14:28;;;;;;;7.13;5.97;;;18.70;32.20;;;;;;5072162;28;20411;-33
2022/04/14 07:16:54;;;;;;;8.80;5.43;;;18.80;31.60;;;;;;5072136;28;20186;-33
2022/04/14 07:19:20;;;;;;;10.68;4.75;;;18.90;31.90;;;;;;5071697;28;20168;-33
2022/04/14 07:21:46;;;;;;;9.17;6.07;;;19.00;31.70;;;;;;5071633;28;20215;-33
2022/04/14 07:24:12;;;;;;;10.87;6.87;;;19.20;31.90;;;;;;5072000;28;20963;-33
2022/04/14 07:26:38;;;;;;;10.30;4.95;;;19.40;32.30;;;;;;5071629;28;20183;-33
2022/04/14 07:29:05;;;;;;;9.60;6.90;;;19.50;32.40;;;;;;5071810;28;20177;-33
2022/04/14 07:31:31;;;;;;;8.20;6.22;;;19.70;32.20;;;;;;5074639;28;20192;-33
2022/04/14 07:34:00;;;;;;;9.52;7.15;;;19.80;32.20;;;;;;5075915;28;20321;-33
2022/04/14 07:36:26;;;;;;;8.77;6.13;;;19.90;31.80;;;;;;5075654;28;20188;-31
2022/04/14 07:38:52;;;;;;;10.33;7.17;;;20.00;32.00;;;;;;5075727;28;20588;-31
2022/04/14 07:41:18;;;;;;;9.17;6.70;;;20.20;32.20;;;;;;5073882;28;20580;-31
2022/04/14 07:43:43;;;;;;;9.82;7.65;;;20.30;32.00;;;;;;5063786;28;20848;-31
2022/04/14 07:46:09;;;;;;;12.47;7.13;;;20.40;31.80;;;;;;5073277;28;20267;-31
2022/04/14 07:48:35;;;;;;;11.73;7.20;;;20.20;31.60;;;;;;5075508;28;20221;-31
2022/04/14 07:51:01;;;;;;;11.40;7.30;;;20.40;32.10;;;;;;5075514;28;20438;-31
2022/04/14 07:53:31;;;;;;;11.32;7.47;;;20.50;32.20;;;;;;5075475;28;20292;-31
2022/04/14 07:55:56;;;;;;;10.70;7.38;;;20.60;32.10;;;;;;5075161;28;20670;-31
2022/04/14 07:58:22;;;;;;;12.40;8.60;;;20.70;31.80;;;;;;5075544;28;20172;-31
2022/04/14 08:00:50;;;;;;;14.90;8.87;;;20.90;31.80;;;;;;5075038;28;20515;-31
2022/04/14 08:03:16;;;;;;;10.88;8.38;;;21.10;32.00;;;;;;5074984;28;20216;-31
2022/04/14 08:05:44;;;;;;;10.63;7.83;;;21.30;31.70;;;;;;5075316;28;20173;-31
2022/04/14 08:08:15;;;;;;;13.60;8.75;;;21.30;32.10;;;;;;5074960;28;20184;-31
2022/04/14 08:10:42;;;;;;;9.43;7.25;;;21.40;32.10;;;;;;5074959;28;20176;-31
2022/04/14 08:13:08;;;;;;;10.38;8.80;;;21.60;32.20;;;;;;5074921;28;20211;-31
2022/04/14 08:15:35;;;;;;;8.73;7.80;;;21.70;31.50;;;;;;5074958;28;20210;-31
2022/04/14 08:18:02;;;;;;;16.17;8.43;;;21.70;31.20;;;;;;5074871;28;20415;-31
2022/04/14 08:20:27;;;;;;;11.93;9.52;;;21.80;31.80;;;;;;5074844;28;20185;-31
2022/04/14 08:22:55;;;;;;;12.50;10.30;;;21.80;30.90;;;;;;5074979;28;20565;-31
2022/04/14 08:25:27;;;;;;;13.50;9.43;;;21.80;31.60;;;;;;5074849;28;20219;-31
2022/04/14 08:27:54;;;;;;;14.00;10.98;;;22.00;32.00;;;;;;5075116;28;20176;-31
2022/04/14 08:30:21;;;;;;;14.13;8.50;;;22.20;31.50;;;;;;5074913;28;20590;-30
2022/04/14 08:32:48;;;;;;;12.68;9.80;;;22.30;31.50;;;;;;5074760;28;20261;-30
2022/04/14 08:35:15;;;;;;;15.03;10.47;;;22.40;30.10;;;;;;5074907;28;20180;-30
2022/04/14 08:37:42;;;;;;;15.45;9.27;;;22.40;30.80;;;;;;5074804;28;20446;-30
2022/04/14 08:40:10;;;;;;;18.33;9.55;;;22.30;31.50;;;;;;5074538;28;20669;-31
2022/04/14 08:42:39;;;;;;;13.27;9.33;;;22.40;30.60;;;;;;5081660;28;20227;-31
2022/04/14 08:45:08;;;;;;;14.33;9.70;;;22.50;31.40;;;;;;5090989;28;20916;-31
2022/04/14 08:47:36;;;;;;;17.02;10.23;;;22.80;31.80;;;;;;5087336;28;20433;-31
2022/04/14 08:50:04;;;;;;;12.77;9.70;;;23.00;31.10;;;;;;5086296;28;20266;-30
2022/04/14 08:52:33;;;;;;;13.90;9.90;;;23.10;31.10;;;;;;5086335;28;20522;-31
2022/04/14 08:54:59;;;;;;;12.23;10.17;;;23.20;30.80;;;;;;5087724;28;20407;-30
2022/04/14 08:57:25;;;;;;;15.27;10.00;;;23.30;30.50;;;;;;5083701;28;21001;-29
2022/04/14 08:59:51;;;;;;;13.40;9.47;;;23.30;30.30;;;;;;5074487;28;20454;-30
2022/04/14 09:02:19;;;;;;;15.27;9.73;;;23.30;30.50;;;;;;5073432;28;20458;-31
2022/04/14 09:04:45;;;;;;;13.40;9.70;;;23.40;30.60;;;;;;5074086;28;20172;-30
2022/04/14 09:07:11;;;;;;;14.60;11.80;;;23.40;30.80;;;;;;5074188;28;20403;-30
2022/04/14 09:09:38;;;;;;;14.60;10.90;;;23.30;29.90;;;;;;5074393;28;20411;-30
2022/04/14 09:12:05;;;;;;;12.30;8.93;;;23.20;30.10;;;;;;5073730;28;20558;-30
2022/04/14 09:14:34;;;;;;;12.23;10.37;;;23.20;30.00;;;;;;5074329;28;20516;-30
2022/04/14 09:17:04;;;;;;;17.90;11.10;;;23.20;30.40;;;;;;5074197;28;20490;-30
2022/04/14 09:19:31;;;;;;;11.73;9.63;;;23.20;29.60;;;;;;5074403;28;20461;-30
2022/04/14 09:22:11;;;;;;;16.23;10.57;;;23.20;30.60;;;;;;5073714;28;20968;-31
2022/04/14 09:24:56;;;;;;;11.53;9.80;;;23.40;30.20;;;;;;5073965;28;20398;-30
2022/04/14 09:27:29;;;;;;;15.43;10.33;;;23.30;29.50;;;;;;5073942;28;20920;-30
2022/04/14 09:29:57;;;;;;;14.00;9.20;;;23.30;29.90;;;;;;5073670;28;20896;-29
2022/04/14 09:32:42;;;;;;;12.77;9.33;;;23.30;30.00;;;;;;5073355;28;20427;-31
2022/04/14 09:35:19;;;;;;;13.43;9.80;;;23.20;29.00;;;;;;5073489;28;20400;-31
2022/04/14 09:37:45;;;;;;;16.90;9.47;;;23.10;30.10;;;;;;5073474;28;20406;-31
2022/04/14 09:40:12;;;;;;;12.57;8.53;;;23.20;30.00;;;;;;5073573;28;20836;-30
2022/04/14 09:42:43;;;;;;;17.20;11.70;;;23.20;29.40;;;;;;5073334;28;20458;-31
2022/04/14 09:45:28;;;;;;;13.67;9.87;;;23.40;29.90;;;;;;5073374;28;20494;-31
2022/04/14 09:48:01;;;;;;;14.70;10.03;;;23.50;29.40;;;;;;5073235;28;20902;-31
2022/04/14 09:50:35;;;;;;;18.13;10.90;;;23.70;29.70;;;;;;5073178;28;20478;-32
2022/04/14 09:53:07;;;;;;;15.43;11.40;;;23.80;29.70;;;;;;5072615;28;20865;-31
2022/04/14 09:55:40;;;;;;;18.20;8.83;;;23.80;28.90;;;;;;5072807;28;20402;-31
2022/04/14 09:58:06;;;;;;;15.40;8.90;;;23.80;28.80;;;;;;5073323;28;20418;-32
2022/04/14 10:00:46;;;;;;;18.23;10.57;;;23.70;28.40;;;;;;5071357;28;20832;-31
2022/04/14 10:03:24;;;;;;;16.03;9.30;;;23.50;29.00;;;;;;5062826;28;20809;-31
2022/04/14 10:05:55;;;;;;;19.03;10.80;;;23.20;29.20;;;;;;5072996;28;20408;-31
2022/04/14 10:08:23;;;;;;;19.00;10.70;;;23.20;30.10;;;;;;5072990;28;20406;-31
2022/04/14 10:11:02;;;;;;;20.67;11.40;;;23.30;30.20;;;;;;5072711;28;20410;-31
2022/04/14 10:13:34;;;;;;;13.17;9.03;;;23.70;30.60;;;;;;5072512;28;20449;-31
2022/04/14 10:15:59;;;;;;;13.80;10.20;;;24.00;29.10;;;;;;5072954;28;20410;-31
2022/04/14 10:18:25;;;;;;;13.30;10.20;;;24.10;28.10;;;;;;5072835;28;20403;-29
2022/04/14 10:20:51;;;;;;;14.67;9.10;;;23.80;28.60;;;;;;5072459;28;20260;-29
2022/04/14 10:23:17;;;;;;;19.93;10.80;;;23.60;29.30;;;;;;5072462;28;20213;-30
2022/04/14 10:25:42;;;;;;;18.03;11.63;;;23.40;28.50;;;;;;5072963;28;20171;-31
2022/04/14 10:28:15;;;;;;;17.50;10.87;;;23.50;29.80;;;;;;5072555;28;20399;-31
2022/04/14 10:30:49;;;;;;;15.70;9.53;;;23.60;29.10;;;;;;5072352;28;20247;-31
2022/04/14 10:33:16;;;;;;;11.27;10.03;;;23.60;29.40;;;;;;5072231;28;20773;-31
2022/04/14 10:35:42;;;;;;;12.73;9.20;;;23.80;29.80;;;;;;5072575;28;20791;-31
2022/04/14 10:38:29;;;;;;;11.47;8.47;;;24.10;29.90;;;;;;5072426;28;20411;-30
2022/04/14 10:41:12;;;;;;;12.70;9.53;;;24.30;27.90;;;;;;5072261;28;20247;-32
2022/04/14 10:43:42;;;;;;;14.30;9.30;;;24.20;29.80;;;;;;5072459;28;20402;-33
2022/04/14 10:46:08;;;;;;;27.13;9.73;;;24.30;29.20;;;;;;5068903;28;20495;-33
2022/04/14 10:48:35;;;;;;;14.90;8.30;;;24.50;29.90;;;;;;5064098;28;20968;-32
2022/04/14 10:51:27;;;;;;;19.13;9.60;;;24.90;28.90;;;;;;5072102;28;20406;-33
2022/04/14 10:53:57;;;;;;;11.30;7.97;;;25.50;26.00;;;;;;5072225;28;20413;-31
2022/04/14 10:56:41;;;;;;;12.00;10.77;;;25.60;25.20;;;;;;5072728;28;20396;-31
2022/04/14 10:59:18;;;;;;;15.50;9.63;;;25.70;25.10;;;;;;5072775;28;20399;-31
2022/04/14 11:01:47;;;;;;;11.77;7.57;;;25.60;25.60;;;;;;5072346;28;20955;-31
2022/04/14 11:04:25;;;;;;;12.70;8.97;;;25.60;26.40;;;;;;5072508;28;20417;-31
2022/04/14 11:06:52;;;;;;;12.70;9.50;;;25.70;25.80;;;;;;5071701;28;20494;-31
2022/04/14 11:09:42;;;;;;;15.87;9.80;;;25.60;25.70;;;;;;5072171;28;20761;-31
2022/04/14 11:12:19;;;;;;;11.40;9.07;;;25.50;25.60;;;;;;5071553;28;20449;-31
2022/04/14 11:14:59;;;;;;;10.33;7.80;;;25.30;25.60;;;;;;5072192;28;20498;-31
2022/04/14 11:17:31;;;;;;;11.27;7.87;;;25.20;26.80;;;;;;5071864;28;20398;-31
2022/04/14 11:20:13;;;;;;;21.10;8.00;;;25.40;26.40;;;;;;5071728;28;20448;-31
2022/04/14 11:23:09;;;;;;;14.53;9.97;;;25.70;26.90;;;;;;5071400;28;20454;-30
2022/04/14 11:25:47;;;;;;;13.90;8.00;;;25.90;26.80;;;;;;5067385;28;20413;-29
2022/04/14 11:28:33;;;;;;;16.77;10.23;;;26.20;26.30;;;;;;5070446;28;20398;-31
2022/04/14 11:31:14;;;;;;;8.10;7.10;;;26.30;25.50;;;;;;5071542;28;20911;-31
2022/04/14 11:33:43;;;;;;;10.03;7.77;;;26.40;25.60;;;;;;5071927;28;20403;-31
2022/04/14 11:36:18;;;;;;;9.33;8.20;;;26.50;25.40;;;;;;5071602;28;20439;-31
2022/04/14 11:39:00;;;;;;;9.13;7.40;;;26.50;25.80;;;;;;5071960;28;20398;-31
2022/04/14 11:41:44;;;;;;;11.80;8.17;;;26.70;25.80;;;;;;5069210;28;20505;-31
2022/04/14 11:44:21;;;;;;;12.97;8.53;;;26.90;25.20;;;;;;5063146;28;20402;-31
2022/04/14 11:46:48;;;;;;;8.80;7.47;;;26.90;24.60;;;;;;5072006;28;20398;-31
2022/04/14 11:49:19;;;;;;;9.67;6.43;;;26.90;25.30;;;;;;5071725;28;20418;-31
2022/04/14 11:51:49;;;;;;;8.83;8.03;;;26.90;25.10;;;;;;5071303;28;20962;-31
2022/04/14 11:54:27;;;;;;;9.00;6.50;;;27.10;25.00;;;;;;5071751;28;20453;-31
2022/04/14 11:57:07;;;;;;;9.43;6.73;;;27.10;25.80;;;;;;5071447;28;20403;-31
2022/04/14 11:59:38;;;;;;;10.80;7.40;;;27.20;25.80;;;;;;5071382;28;20409;-31
2022/04/14 12:02:08;;;;;;;9.10;7.50;;;27.30;25.40;;;;;;5071231;28;20951;-32
2022/04/14 12:04:45;;;;;;;8.87;7.27;;;27.50;25.10;;;;;;5070200;28;20399;-31
2022/04/14 12:07:11;;;;;;;10.43;6.50;;;27.60;25.20;;;;;;5071477;28;20430;-31
2022/04/14 12:09:37;;;;;;;7.27;6.50;;;27.70;25.20;;;;;;5072172;28;20437;-31
2022/04/14 12:12:10;;;;;;;8.47;5.67;;;27.90;25.20;;;;;;5071134;28;20889;-31
2022/04/14 12:14:47;;;;;;;8.40;6.33;;;27.80;22.80;;;;;;5071354;28;20422;-31
2022/04/14 12:17:21;;;;;;;8.00;6.80;;;27.80;24.70;;;;;;5061312;28;20932;-31
2022/04/14 12:19:55;;;;;;;9.63;6.23;;;27.90;24.70;;;;;;5063419;28;20400;-31
2022/04/14 12:22:23;;;;;;;8.87;5.30;;;28.10;25.70;;;;;;5054810;28;20651;-31
2022/04/14 12:24:54;;;;;;;8.30;4.63;;;28.30;25.90;;;;;;5055187;28;20439;-31
2022/04/14 12:27:30;;;;;;;7.60;5.63;;;28.30;24.20;;;;;;5055147;28;20396;-30
2022/04/14 12:30:06;;;;;;;5.10;4.60;;;28.30;23.70;;;;;;5062006;28;20414;-31
2022/04/14 12:32:32;;;;;;;6.57;4.70;;;27.90;23.30;;;;;;5059948;28;20555;-30
2022/04/14 12:34:58;;;;;;;8.00;5.50;;;27.80;24.40;;;;;;5074813;28;20440;-31
2022/04/14 12:37:34;;;;;;;5.33;4.47;;;27.80;24.30;;;;;;5067208;28;20238;-30
2022/04/14 12:40:13;;;;;;;9.30;5.63;;;27.80;24.60;;;;;;5066384;28;20195;-30
2022/04/14 12:42:40;;;;;;;5.97;4.47;;;27.90;24.20;;;;;;5074138;28;20811;-31
2022/04/14 12:45:06;;;;;;;5.30;3.97;;;27.70;24.50;;;;;;5074759;28;20478;-31
2022/04/14 12:47:32;;;;;;;4.37;3.47;;;27.60;24.70;;;;;;5074172;28;20467;-31
2022/04/14 12:49:59;;;;;;;9.50;4.30;;;27.60;25.30;;;;;;5074401;28;20403;-31